Historyczne dane pomiarowe

Dodano dane terminowe – wersja testowa.

Dane z okresu 1951-2019

Wersja bazy: 1.34 [2019-03-16, lista zmian], aktualizacja planowana na 2019-04-15

Dane meteo z obszaru Polski uzyskane na podstawie danych udostępnionych przez Instytut Meteorologii i Gospodarki Wodnej – Państwowy Instytut Badawczy.

 

Wybierz Datę:    

       

TemperaturaWilgotnośćZachmurzenieWiatrCiśnienieWidzialnośćZjawiska
 Data    tng td wb rh cc ccl cl cm ch dir g1 g2 mslp ppp      
1999-07-31 00:00:00 16.4--- 11.6 13.673wxwx3wx--1018.9 996.8 0.0---wx
1999-07-31 01:00:00 16.0--- 12.6 14.080wxwx4wx--1018.9 996.8----wx
1999-07-31 02:00:00 14.8--- 10.4 12.375wxwx3wx--1019.2 997.0----wx
1999-07-31 03:00:00 13.4--- 10.0 11.580wxwx3wx--1019.4 997.1----wx
1999-07-31 04:00:00 14.6--- 11.1 12.680wxwx3wx--1019.5 997.3----wx
1999-07-31 05:00:00 16.3--- 10.7 13.169wxwx3wx--1019.5 997.4----wx
1999-07-31 06:00:00 18.4--- 12.0 14.666wxwx2wx--1019.3 997.4 0.0---wx
1999-07-31 07:00:00 21.1--- 10.0 14.749wxwx3wx--1019.0 997.3----wx
1999-07-31 08:00:00 22.5--- 9.7 15.144wxwx3wx--1018.9 997.3----wx
1999-07-31 09:00:00 23.2--- 10.7 15.845wxwx3wx--1019.2 997.6----wx
1999-07-31 10:00:00 24.2--- 7.7 14.935wxwx3wx--1018.8 997.3----wx
1999-07-31 11:00:00 24.7--- 6.2 14.530wxwx4wx--1018.7 997.2----wx
1999-07-31 12:00:00 25.2--- 7.5 15.232wxwx5wx--1018.3 996.9 0.0---wx
1999-07-31 13:00:00 25.5--- 7.2 15.231wxwx5wx--1018.0 996.6----wx
1999-07-31 14:00:00 25.4--- 6.3 14.829wxwx6wx--1017.6 996.2----wx
1999-07-31 15:00:00 25.4--- 5.4 14.528wxwx6wx--1017.4 996.0----wx
1999-07-31 16:00:00 24.8--- 4.7 14.027wxwx6wx--1017.4 996.0----wx
1999-07-31 17:00:00 23.9--- 5.1 13.830wxwx4wx--1017.5 996.0----wx
1999-07-31 18:00:00 21.5--- 6.7 13.438wxwx2wx--1018.2 996.5 0.0---wx
1999-07-31 19:00:00 18.4--- 6.9 12.247wxwx3wx--1018.8 996.9----wx
1999-07-31 20:00:00 17.7--- 6.2 11.647wxwx2wx--1019.3 997.3----wx
1999-07-31 21:00:00 16.7--- 7.0 11.553wxwx2wx--1019.8 997.7----wx
1999-07-31 22:00:00 16.0--- 6.5 11.053wxwx2wx--1019.8 997.7----wx
1999-07-31 23:00:00 16.0--- 7.0 11.255wxwx2wx--1020.1 998.0----wx

 

Źródłem pochodzenia danych jest Instytut Meteorologii i Gospodarki Wodnej – Państwowy Instytut Badawczy. Dane Instytutu Meteorologii i Gospodarki Wodnej – Państwowego Instytutu Badawczego zostały przetworzone.

Dane źródłowe można odnaleźć na stronie https://dane.imgw.pl